createdAt,value
2018-04-08T00:01:01.809Z,9.53
2018-04-08T00:03:29.584Z,8.80
2018-04-08T00:05:57.339Z,9.10
2018-04-08T00:08:25.088Z,8.53
2018-04-08T00:10:53.621Z,10.30
2018-04-08T00:13:21.356Z,9.40
2018-04-08T00:15:49.095Z,9.30
2018-04-08T00:18:16.826Z,8.80
2018-04-08T00:20:44.559Z,9.00
2018-04-08T00:23:12.349Z,9.10
2018-04-08T00:25:40.115Z,9.20
2018-04-08T00:28:07.877Z,8.37
2018-04-08T00:30:35.636Z,8.30
2018-04-08T00:33:03.386Z,9.30
2018-04-08T00:35:31.120Z,9.37
2018-04-08T00:37:59.644Z,8.77
2018-04-08T00:40:27.450Z,9.20
2018-04-08T00:42:55.196Z,9.30
2018-04-08T00:45:22.962Z,8.60
2018-04-08T00:47:50.718Z,10.87
2018-04-08T00:50:18.458Z,8.93
2018-04-08T00:52:46.214Z,9.00
2018-04-08T00:55:14.000Z,8.30
2018-04-08T00:57:41.786Z,9.33
2018-04-08T01:00:09.507Z,8.30
2018-04-08T01:02:37.239Z,10.13
2018-04-08T01:05:04.974Z,8.40
2018-04-08T01:07:32.727Z,9.17
2018-04-08T01:10:00.488Z,8.77
2018-04-08T01:12:28.218Z,8.43
2018-04-08T01:14:55.954Z,8.23
2018-04-08T01:17:23.703Z,9.33
2018-04-08T01:19:51.444Z,8.13
2018-04-08T01:22:19.188Z,8.90
2018-04-08T01:24:46.939Z,8.87
2018-04-08T01:27:14.690Z,8.40
2018-04-08T01:29:42.453Z,8.60
2018-04-08T01:32:10.195Z,8.47
2018-04-08T01:34:37.952Z,7.43
2018-04-08T01:37:05.764Z,7.60
2018-04-08T01:39:33.524Z,6.80
2018-04-08T01:42:01.248Z,7.33
2018-04-08T01:44:29.753Z,6.43
2018-04-08T01:46:57.522Z,6.20
2018-04-08T01:49:25.276Z,5.90
2018-04-08T01:51:53.034Z,6.03
2018-04-08T01:54:20.757Z,6.67
2018-04-08T01:56:48.528Z,8.27
2018-04-08T01:59:16.270Z,7.37
2018-04-08T02:01:44.043Z,8.00
2018-04-08T02:04:11.778Z,7.70
2018-04-08T02:06:39.508Z,6.17
2018-04-08T02:09:07.238Z,6.70
2018-04-08T02:11:34.970Z,6.93
2018-04-08T02:14:02.705Z,9.50
2018-04-08T02:16:31.311Z,10.60
2018-04-08T02:18:59.804Z,10.17
2018-04-08T02:21:27.532Z,10.67
2018-04-08T02:23:55.277Z,9.80
2018-04-08T02:26:23.025Z,9.83
2018-04-08T02:28:50.790Z,10.90
2018-04-08T02:31:18.597Z,11.27
2018-04-08T02:33:46.341Z,9.53
2018-04-08T02:36:14.089Z,10.70
2018-04-08T02:38:41.831Z,9.97
2018-04-08T02:41:09.566Z,9.70
2018-04-08T02:43:37.330Z,10.50
2018-04-08T02:46:05.806Z,10.57
2018-04-08T02:48:33.555Z,10.17
2018-04-08T02:51:01.299Z,11.20
2018-04-08T02:53:29.052Z,11.20
2018-04-08T02:55:57.500Z,10.37
2018-04-08T02:58:25.251Z,10.70
2018-04-08T03:00:53.006Z,10.07
2018-04-08T03:03:20.775Z,10.33
2018-04-08T03:05:48.545Z,10.03
2018-04-08T03:08:16.283Z,10.40
2018-04-08T03:10:44.034Z,10.10
2018-04-08T03:13:11.779Z,10.73
2018-04-08T03:15:39.530Z,11.23
2018-04-08T03:18:07.276Z,11.27
2018-04-08T03:20:35.035Z,12.40
2018-04-08T03:23:02.771Z,10.40
2018-04-08T03:25:30.566Z,10.40
2018-04-08T03:27:58.299Z,10.63
2018-04-08T03:30:26.051Z,10.30
2018-04-08T03:32:54.083Z,9.07
2018-04-08T03:35:21.841Z,10.10
2018-04-08T03:37:49.595Z,9.77
2018-04-08T03:40:17.325Z,8.97
2018-04-08T03:42:45.834Z,10.20
2018-04-08T03:45:13.579Z,9.47
2018-04-08T03:47:41.336Z,8.70
2018-04-08T03:50:09.092Z,10.13
2018-04-08T03:52:36.879Z,9.37
2018-04-08T03:55:04.671Z,8.93
2018-04-08T03:57:32.753Z,9.50
2018-04-08T04:00:00.546Z,9.10
2018-04-08T04:02:28.502Z,9.43
2018-04-08T04:04:56.242Z,9.63
2018-04-08T04:07:24.023Z,10.50
2018-04-08T04:09:51.880Z,9.00
2018-04-08T04:12:19.646Z,9.13
2018-04-08T04:14:47.409Z,9.50
2018-04-08T04:17:15.168Z,10.63
2018-04-08T04:33:11.819Z,9.23
2018-04-08T04:35:39.624Z,9.37
2018-04-08T04:38:07.428Z,7.53
2018-04-08T04:40:35.221Z,7.00
2018-04-08T04:43:03.049Z,7.60
2018-04-08T04:45:31.588Z,7.67
2018-04-08T04:47:59.346Z,7.40
2018-04-08T04:50:27.121Z,8.70
2018-04-08T04:52:54.887Z,8.30
2018-04-08T04:55:22.664Z,6.80
2018-04-08T04:57:50.454Z,7.90
2018-04-08T05:00:18.269Z,6.80
2018-04-08T05:02:46.118Z,8.43
2018-04-08T05:05:13.872Z,8.20
2018-04-08T05:07:42.440Z,8.40
2018-04-08T05:10:10.248Z,8.30
2018-04-08T05:12:38.488Z,9.40
2018-04-08T05:15:06.291Z,9.57
2018-04-08T05:17:34.110Z,8.57
2018-04-08T05:20:01.951Z,9.03
2018-04-08T05:22:30.529Z,8.83
2018-04-08T05:24:58.384Z,9.03
2018-04-08T05:27:26.189Z,9.63
2018-04-08T05:29:54.046Z,9.53
2018-04-08T05:32:21.868Z,10.30
2018-04-08T05:34:49.647Z,10.00
2018-04-08T05:37:19.754Z,9.83
2018-04-08T05:39:48.882Z,9.83
2018-04-08T05:42:16.640Z,10.70
2018-04-08T05:44:44.394Z,9.33
2018-04-08T05:47:12.167Z,9.40
2018-04-08T05:49:39.938Z,9.43
2018-04-08T05:52:07.712Z,9.10
2018-04-08T05:54:35.484Z,7.67
2018-04-08T05:57:03.262Z,8.30
2018-04-08T05:59:31.025Z,9.00
2018-04-08T06:01:58.788Z,8.40
2018-04-08T06:04:26.609Z,8.37
2018-04-08T06:06:54.370Z,7.47
2018-04-08T06:09:23.434Z,8.30
2018-04-08T06:11:51.180Z,8.53
2018-04-08T06:14:18.964Z,7.90
2018-04-08T06:16:46.761Z,8.90
2018-04-08T06:19:14.511Z,7.37
2018-04-08T06:21:42.254Z,8.33
2018-04-08T06:24:10.021Z,8.53
2018-04-08T06:26:39.371Z,8.10
2018-04-08T06:29:07.129Z,9.07
2018-04-08T06:31:34.863Z,9.03
2018-04-08T06:34:02.678Z,8.27
2018-04-08T06:36:30.483Z,8.80
2018-04-08T06:38:58.323Z,8.20
2018-04-08T06:41:27.744Z,7.80
2018-04-08T06:44:14.922Z,8.67
2018-04-08T06:46:43.445Z,7.93
2018-04-08T06:52:13.813Z,7.80
2018-04-08T06:54:41.674Z,8.77
2018-04-08T06:57:10.207Z,8.50
2018-04-08T06:59:38.052Z,8.87
2018-04-08T07:02:05.784Z,9.70
2018-04-08T07:04:35.169Z,9.20
2018-04-08T07:07:02.890Z,8.53
2018-04-08T07:09:30.775Z,13.53
2018-04-08T07:11:58.501Z,8.00
2018-04-08T07:14:26.986Z,8.90
2018-04-08T07:16:55.013Z,8.50
2018-04-08T07:19:22.729Z,8.67
2018-04-08T07:21:50.476Z,7.60
2018-04-08T07:24:18.973Z,9.87
2018-04-08T07:26:46.686Z,8.50
2018-04-08T07:29:14.411Z,8.10
2018-04-08T07:31:42.129Z,8.50
2018-04-08T07:34:09.840Z,9.50
2018-04-08T07:36:37.578Z,8.23
2018-04-08T07:39:05.335Z,9.93
2018-04-08T07:41:33.044Z,9.60
2018-04-08T07:44:00.755Z,13.33
2018-04-08T07:46:28.469Z,15.90
2018-04-08T07:48:57.173Z,15.20
2018-04-08T07:51:24.921Z,15.10
2018-04-08T07:53:52.702Z,13.67
2018-04-08T07:56:20.424Z,11.90
2018-04-08T07:58:48.150Z,9.70
2018-04-08T08:01:16.073Z,9.63
2018-04-08T08:03:44.557Z,9.00
2018-04-08T08:06:12.307Z,9.33
2018-04-08T08:08:40.042Z,8.57
2018-04-08T08:11:07.802Z,9.33
2018-04-08T08:13:35.594Z,9.30
2018-04-08T08:16:03.342Z,9.80
2018-04-08T08:18:31.082Z,10.23
2018-04-08T08:20:58.801Z,12.07
2018-04-08T08:23:26.532Z,11.87
2018-04-08T08:25:54.257Z,12.13
2018-04-08T08:28:22.005Z,14.33
2018-04-08T08:30:49.717Z,13.93
2018-04-08T08:33:17.486Z,16.37
2018-04-08T08:35:46.426Z,17.17
2018-04-08T08:38:15.708Z,17.97
2018-04-08T08:40:43.531Z,18.10
2018-04-08T08:43:13.077Z,17.77
2018-04-08T08:45:41.662Z,18.60
2018-04-08T08:48:10.498Z,16.30
2018-04-08T08:50:38.300Z,15.00
2018-04-08T08:53:06.148Z,14.57
2018-04-08T08:55:33.938Z,17.50
2018-04-08T08:58:01.904Z,14.13
2018-04-08T09:00:29.890Z,17.00
2018-04-08T09:05:38.748Z,14.83
2018-04-08T09:08:07.690Z,13.30
2018-04-08T09:10:36.776Z,12.50
2018-04-08T09:13:04.750Z,10.60
2018-04-08T09:15:55.596Z,12.00
2018-04-08T09:18:26.468Z,11.87
2018-04-08T09:24:24.610Z,12.70
2018-04-08T09:26:53.118Z,12.53
2018-04-08T09:29:21.021Z,13.60
2018-04-08T09:32:07.672Z,15.10
2018-04-08T09:35:13.802Z,13.80
2018-04-08T09:37:42.480Z,14.00
2018-04-08T09:40:11.506Z,17.70
2018-04-08T09:42:40.084Z,14.30
2018-04-08T09:45:08.224Z,14.30
2018-04-08T09:47:36.115Z,15.17
2018-04-08T09:50:03.872Z,14.10
2018-04-08T09:52:31.631Z,13.20
2018-04-08T09:54:59.654Z,12.67
2018-04-08T09:57:27.440Z,13.40
2018-04-08T09:59:55.328Z,15.50
2018-04-08T10:02:28.709Z,13.00
2018-04-08T10:04:57.296Z,12.00
2018-04-08T10:07:25.963Z,11.60
2018-04-08T10:09:56.742Z,11.33
2018-04-08T10:12:24.516Z,10.87
2018-04-08T10:14:52.308Z,11.43
2018-04-08T10:17:20.082Z,9.40
2018-04-08T10:19:47.876Z,7.97
2018-04-08T10:22:16.582Z,8.70
2018-04-08T10:24:44.382Z,9.57
2018-04-08T10:27:13.975Z,10.70
2018-04-08T10:29:41.776Z,8.43
2018-04-08T10:32:09.551Z,7.20
2018-04-08T10:34:37.344Z,6.63
2018-04-08T10:37:05.900Z,7.53
2018-04-08T10:39:33.675Z,7.97
2018-04-08T10:42:01.456Z,8.07
2018-04-08T10:44:30.058Z,8.27
2018-04-08T10:46:57.827Z,9.03
2018-04-08T10:49:25.675Z,8.10
2018-04-08T10:51:53.527Z,7.70
2018-04-08T10:54:21.323Z,8.33
2018-04-08T10:56:49.077Z,7.63
2018-04-08T10:59:17.614Z,7.70
2018-04-08T11:01:45.396Z,7.23
2018-04-08T11:04:13.175Z,7.30
2018-04-08T11:06:41.210Z,7.33
2018-04-08T11:09:09.027Z,8.00
2018-04-08T11:11:36.870Z,7.67
2018-04-08T11:14:04.654Z,7.20
2018-04-08T11:16:32.425Z,6.37
2018-04-08T11:19:00.223Z,7.10
2018-04-08T11:21:28.748Z,7.03
2018-04-08T11:23:56.506Z,7.70
2018-04-08T11:26:24.271Z,7.20
2018-04-08T11:28:52.037Z,7.63
2018-04-08T11:31:19.812Z,7.27
2018-04-08T11:33:47.638Z,8.87
2018-04-08T11:36:15.397Z,8.60
2018-04-08T11:38:43.161Z,8.67
2018-04-08T11:41:11.790Z,8.57
2018-04-08T11:43:39.613Z,10.83
2018-04-08T11:46:07.384Z,10.23
2018-04-08T11:48:35.167Z,8.90
2018-04-08T11:51:05.481Z,7.63
2018-04-08T11:53:34.048Z,8.33
2018-04-08T11:56:07.707Z,7.17
2018-04-08T11:58:35.800Z,7.27
2018-04-08T12:01:03.603Z,7.27
2018-04-08T12:03:31.409Z,8.20
2018-04-08T12:06:00.287Z,7.10
2018-04-08T12:08:28.396Z,7.63
2018-04-08T12:10:56.205Z,8.73
2018-04-08T12:13:24.018Z,8.33
2018-04-08T12:15:51.744Z,8.40
2018-04-08T12:18:19.705Z,6.10
2018-04-08T12:20:48.389Z,5.70
2018-04-08T12:23:16.242Z,7.40
2018-04-08T12:25:44.070Z,5.37
2018-04-08T12:28:19.828Z,5.37
2018-04-08T12:30:57.543Z,4.80
2018-04-08T12:33:25.418Z,5.20
2018-04-08T12:35:53.262Z,4.80
2018-04-08T12:38:37.983Z,4.53
2018-04-08T12:41:05.892Z,5.03
2018-04-08T12:46:21.464Z,5.13
2018-04-08T12:49:18.218Z,4.43
2018-04-08T13:04:51.910Z,4.10
2018-04-08T13:07:19.691Z,4.90
2018-04-08T13:09:47.510Z,5.10
2018-04-08T13:12:15.466Z,4.27
2018-04-08T13:14:43.296Z,4.40
2018-04-08T13:17:19.128Z,5.30
2018-04-08T13:19:50.288Z,4.47
2018-04-08T13:22:18.268Z,5.53
2018-04-08T13:24:54.863Z,5.53
2018-04-08T13:27:24.442Z,4.50
2018-04-08T13:29:52.473Z,4.27
2018-04-08T13:32:20.517Z,3.70
2018-04-08T13:34:48.421Z,3.97
2018-04-08T13:37:16.300Z,4.30
2018-04-08T13:39:44.153Z,3.40
2018-04-08T13:42:11.955Z,3.80
2018-04-08T13:44:39.773Z,3.20
2018-04-08T13:47:07.610Z,3.60
2018-04-08T13:49:36.258Z,3.50
2018-04-08T13:52:04.065Z,4.10
2018-04-08T13:54:32.769Z,3.83
2018-04-08T13:57:00.593Z,3.47
2018-04-08T13:59:29.339Z,3.10
2018-04-08T14:01:57.476Z,3.30
2018-04-08T14:04:26.100Z,3.30
2018-04-08T14:06:53.968Z,3.20
2018-04-08T14:09:21.800Z,2.83
2018-04-08T14:11:49.921Z,3.27
2018-04-08T14:14:21.094Z,3.23
2018-04-08T14:16:49.026Z,2.97
2018-04-08T14:19:39.291Z,3.47
2018-04-08T14:25:21.173Z,2.80
2018-04-08T14:27:53.840Z,2.57
2018-04-08T14:30:27.932Z,2.77
2018-04-08T14:32:56.827Z,2.43
2018-04-08T14:35:24.722Z,3.50
2018-04-08T14:37:54.122Z,2.53
2018-04-08T14:40:23.303Z,3.23
2018-04-08T14:45:33.492Z,1.90
2018-04-08T14:48:02.351Z,2.50
2018-04-08T14:53:51.578Z,2.90
2018-04-08T14:56:33.952Z,2.20
2018-04-08T14:59:02.090Z,2.20
2018-04-08T15:01:30.027Z,2.27
2018-04-08T15:03:57.940Z,2.23
2018-04-08T15:06:26.773Z,1.93
2018-04-08T15:08:54.700Z,2.57
2018-04-08T15:11:22.460Z,2.67
2018-04-08T15:13:50.507Z,2.00
2018-04-08T15:16:18.266Z,1.93
2018-04-08T15:18:46.081Z,2.20
2018-04-08T15:21:13.839Z,2.30
2018-04-08T15:23:41.642Z,1.70
2018-04-08T15:26:10.267Z,1.90
2018-04-08T15:28:38.038Z,1.90
2018-04-08T15:31:05.816Z,2.50
2018-04-08T15:33:37.156Z,4.27
2018-04-08T15:36:04.887Z,2.33
2018-04-08T15:38:33.399Z,3.07
2018-04-08T15:41:01.318Z,2.57
2018-04-08T15:43:29.071Z,3.57
2018-04-08T15:45:56.815Z,2.43
2018-04-08T15:48:28.571Z,2.90
2018-04-08T15:50:56.461Z,3.07
2018-04-08T15:53:40.673Z,2.13
2018-04-08T15:56:09.384Z,2.03
2018-04-08T15:58:40.161Z,2.90
2018-04-08T16:01:08.558Z,2.30
2018-04-08T16:03:37.897Z,2.33
2018-04-08T16:06:05.716Z,1.90
2018-04-08T16:08:33.520Z,2.20
2018-04-08T16:11:01.325Z,2.00
2018-04-08T16:13:30.274Z,2.10
2018-04-08T16:16:00.141Z,2.20
2018-04-08T16:18:27.882Z,2.30
2018-04-08T16:20:55.734Z,1.90
2018-04-08T16:23:24.162Z,2.50
2018-04-08T16:25:51.921Z,2.33
2018-04-08T16:28:19.695Z,2.60
2018-04-08T16:30:47.485Z,2.47
2018-04-08T16:33:16.887Z,2.40
2018-04-08T16:35:44.740Z,2.60
2018-04-08T16:38:12.457Z,2.90
2018-04-08T16:40:40.178Z,2.47
2018-04-08T16:43:07.883Z,2.77
2018-04-08T16:45:35.599Z,2.90
2018-04-08T16:48:03.363Z,3.13
2018-04-08T16:50:31.118Z,2.93
2018-04-08T16:52:59.127Z,2.97
2018-04-08T16:55:26.931Z,2.10
2018-04-08T16:57:54.693Z,2.67
2018-04-08T17:00:22.436Z,3.33
2018-04-08T17:02:52.075Z,2.90
2018-04-08T17:05:20.078Z,3.20
2018-04-08T17:07:47.965Z,2.47
2018-04-08T17:10:21.203Z,2.50
2018-04-08T17:12:48.992Z,3.50
2018-04-08T17:15:25.641Z,4.90
2018-04-08T17:18:04.714Z,3.63
2018-04-08T17:20:34.612Z,2.67
2018-04-08T17:23:02.511Z,3.00
2018-04-08T17:25:31.556Z,3.57
2018-04-08T17:29:03.885Z,2.50
2018-04-08T17:31:32.015Z,3.00
2018-04-08T17:34:02.280Z,3.53
2018-04-08T17:36:44.757Z,2.70
2018-04-08T17:39:48.338Z,2.33
2018-04-08T17:42:16.332Z,2.47
2018-04-08T17:44:44.241Z,2.53
2018-04-08T17:47:13.202Z,3.03
2018-04-08T17:49:41.046Z,2.43
2018-04-08T17:52:08.958Z,2.60
2018-04-08T17:54:36.725Z,2.70
2018-04-08T17:57:05.937Z,2.80
2018-04-08T17:59:33.801Z,2.57
2018-04-08T18:02:01.834Z,2.80
2018-04-08T18:04:29.727Z,3.77
2018-04-08T18:06:57.444Z,4.90
2018-04-08T18:09:25.152Z,4.10
2018-04-08T18:11:52.891Z,4.37
2018-04-08T18:14:20.632Z,3.80
2018-04-08T18:16:48.385Z,2.70
2018-04-08T18:19:17.838Z,3.10
2018-04-08T18:21:46.480Z,3.33
2018-04-08T18:24:14.522Z,3.70
2018-04-08T18:26:42.570Z,3.90
2018-04-08T18:29:10.430Z,3.10
2018-04-08T18:31:45.062Z,3.13
2018-04-08T18:34:13.088Z,3.17
2018-04-08T18:36:40.879Z,3.60
2018-04-08T18:39:08.799Z,3.23
2018-04-08T18:41:43.444Z,2.93
2018-04-08T18:44:12.036Z,3.27
2018-04-08T18:46:41.704Z,3.07
2018-04-08T18:49:09.456Z,3.60
2018-04-08T18:51:37.388Z,3.23
2018-04-08T18:54:05.170Z,3.80
2018-04-08T18:56:32.993Z,3.37
2018-04-08T18:59:00.719Z,3.67
2018-04-08T19:01:29.361Z,4.03
2018-04-08T19:03:57.302Z,2.93
2018-04-08T19:06:25.398Z,5.10
2018-04-08T19:08:53.174Z,4.20
2018-04-08T19:11:20.925Z,3.70
2018-04-08T19:13:48.663Z,3.87
2018-04-08T19:16:17.238Z,3.20
2018-04-08T19:18:45.042Z,3.37
2018-04-08T19:21:12.764Z,3.90
2018-04-08T19:23:41.126Z,3.67
2018-04-08T19:26:18.618Z,3.47
2018-04-08T19:28:46.599Z,3.97
2018-04-08T19:31:14.370Z,5.20
2018-04-08T19:33:42.104Z,4.23
2018-04-08T19:36:09.838Z,3.50
2018-04-08T19:38:38.349Z,3.80
2018-04-08T19:41:06.082Z,3.97
2018-04-08T19:43:35.429Z,4.63
2018-04-08T19:46:03.160Z,4.53
2018-04-08T19:48:30.876Z,4.57
2018-04-08T19:50:58.633Z,4.30
2018-04-08T19:53:26.386Z,4.37
2018-04-08T19:55:54.120Z,4.87
2018-04-08T19:58:22.620Z,4.23
2018-04-08T20:00:50.388Z,4.27
2018-04-08T20:03:19.179Z,3.87
2018-04-08T20:05:46.925Z,3.80
2018-04-08T20:08:14.906Z,3.97
2018-04-08T20:10:42.777Z,3.53
2018-04-08T20:13:10.627Z,3.73
2018-04-08T20:15:38.631Z,4.40
2018-04-08T20:20:55.660Z,4.50
2018-04-08T20:23:25.960Z,5.10
2018-04-08T20:25:55.560Z,4.20
2018-04-08T20:30:57.000Z,4.40
2018-04-08T20:33:25.532Z,4.00
2018-04-08T20:35:53.299Z,4.30
2018-04-08T20:38:21.353Z,3.50
2018-04-08T20:40:52.189Z,4.40
2018-04-08T20:43:20.072Z,4.43
2018-04-08T20:45:47.950Z,4.90
2018-04-08T20:48:15.673Z,3.83
2018-04-08T20:50:43.381Z,4.80
2018-04-08T20:53:13.657Z,7.90
2018-04-08T20:55:41.381Z,4.87
2018-04-08T20:58:09.860Z,4.53
2018-04-08T21:00:37.573Z,4.50
2018-04-08T21:03:06.332Z,4.10
2018-04-08T21:05:34.102Z,5.03
2018-04-08T21:08:01.832Z,4.80
2018-04-08T21:10:30.455Z,4.70
2018-04-08T21:12:58.214Z,4.60
2018-04-08T21:15:26.752Z,4.30
2018-04-08T21:17:54.511Z,4.87
2018-04-08T21:20:22.246Z,5.10
2018-04-08T21:22:49.970Z,5.20
2018-04-08T21:25:18.659Z,5.30
2018-04-08T21:27:48.533Z,5.43
2018-04-08T21:30:16.274Z,4.57
2018-04-08T21:32:44.018Z,5.53
2018-04-08T21:35:12.522Z,6.40
2018-04-08T21:37:40.272Z,6.33
2018-04-08T21:40:11.124Z,6.10
2018-04-08T21:42:38.902Z,5.30
2018-04-08T21:45:07.432Z,5.93
2018-04-08T21:47:35.923Z,6.43
2018-04-08T21:50:03.691Z,5.53
2018-04-08T21:52:33.200Z,5.03
2018-04-08T21:55:01.292Z,5.27
2018-04-08T21:57:30.699Z,5.40
2018-04-08T21:59:58.423Z,5.70
2018-04-08T22:02:26.148Z,5.70
2018-04-08T22:04:54.373Z,6.27
2018-04-08T22:07:22.092Z,6.00
2018-04-08T22:09:49.891Z,6.47
2018-04-08T22:12:17.664Z,5.80
2018-04-08T22:14:46.050Z,6.27
2018-04-08T22:17:14.599Z,6.43
2018-04-08T22:19:42.328Z,6.97
2018-04-08T22:22:10.049Z,6.67
2018-04-08T22:24:37.774Z,6.83
2018-04-08T22:27:06.773Z,6.90
2018-04-08T22:29:36.207Z,6.60
2018-04-08T22:32:04.281Z,6.10
2018-04-08T22:34:32.826Z,6.57
2018-04-08T22:37:02.100Z,5.83
2018-04-08T22:39:30.031Z,6.40
2018-04-08T22:41:57.741Z,5.80
2018-04-08T22:44:25.461Z,6.70
2018-04-08T22:46:53.182Z,6.87
2018-04-08T22:49:20.910Z,6.30
2018-04-08T22:51:48.664Z,6.60
2018-04-08T22:54:16.863Z,6.90
2018-04-08T22:56:44.579Z,6.17
2018-04-08T22:59:12.300Z,6.73
2018-04-08T23:01:40.845Z,6.63
2018-04-08T23:04:08.568Z,6.40
2018-04-08T23:06:36.265Z,6.20
2018-04-08T23:09:04.086Z,6.60
2018-04-08T23:11:31.886Z,5.90
2018-04-08T23:13:59.662Z,5.83
2018-04-08T23:16:28.145Z,6.63
2018-04-08T23:18:55.861Z,5.87
2018-04-08T23:21:23.640Z,5.60
2018-04-08T23:23:51.363Z,6.63
2018-04-08T23:26:19.093Z,6.07
2018-04-08T23:28:46.833Z,6.23
2018-04-08T23:31:14.550Z,6.17
2018-04-08T23:33:42.271Z,6.60
2018-04-08T23:36:09.985Z,6.80
2018-04-08T23:38:37.701Z,6.00
2018-04-08T23:41:05.411Z,5.60
2018-04-08T23:43:33.897Z,5.80
2018-04-08T23:46:01.631Z,6.33
2018-04-08T23:48:29.340Z,6.40
2018-04-08T23:50:57.041Z,5.80
2018-04-08T23:53:24.798Z,6.07
2018-04-08T23:55:52.514Z,6.13
2018-04-08T23:58:20.210Z,6.50
